sensor_id;sensor_type;location;lat;lon;timestamp;pressure;altitude;pressure_sealevel;temperature;humidity
12879;BME280;20617;49.476;10.986;2022-12-05T00:01:16;97997.59;;;7.86;100.00
12879;BME280;20617;49.476;10.986;2022-12-05T00:03:22;97996.75;;;7.86;100.00
12879;BME280;20617;49.476;10.986;2022-12-05T00:05:29;98001.00;;;7.88;100.00
12879;BME280;20617;49.476;10.986;2022-12-05T00:07:34;97988.81;;;7.90;100.00
12879;BME280;20617;49.476;10.986;2022-12-05T00:09:39;97999.91;;;7.94;100.00
12879;BME280;20617;49.476;10.986;2022-12-05T00:11:44;97999.88;;;7.96;100.00
12879;BME280;20617;49.476;10.986;2022-12-05T00:13:50;98004.25;;;7.93;100.00
12879;BME280;20617;49.476;10.986;2022-12-05T00:15:56;98006.06;;;7.91;100.00
12879;BME280;20617;49.476;10.986;2022-12-05T00:18:00;98002.69;;;7.89;100.00
12879;BME280;20617;49.476;10.986;2022-12-05T00:20:07;98012.31;;;7.86;100.00
12879;BME280;20617;49.476;10.986;2022-12-05T00:22:14;98015.84;;;7.83;100.00
12879;BME280;20617;49.476;10.986;2022-12-05T00:24:19;98018.56;;;7.80;100.00
12879;BME280;20617;49.476;10.986;2022-12-05T00:26:24;98025.66;;;7.74;100.00
12879;BME280;20617;49.476;10.986;2022-12-05T00:28:30;98032.56;;;7.75;100.00
12879;BME280;20617;49.476;10.986;2022-12-05T00:30:34;98031.75;;;7.72;100.00
12879;BME280;20617;49.476;10.986;2022-12-05T00:32:43;98039.59;;;7.71;100.00
12879;BME280;20617;49.476;10.986;2022-12-05T00:34:48;98033.50;;;7.72;100.00
12879;BME280;20617;49.476;10.986;2022-12-05T00:36:53;98030.97;;;7.70;100.00
12879;BME280;20617;49.476;10.986;2022-12-05T00:39:02;98026.56;;;7.72;100.00
12879;BME280;20617;49.476;10.986;2022-12-05T00:41:10;98035.19;;;7.73;100.00
12879;BME280;20617;49.476;10.986;2022-12-05T00:43:15;98028.25;;;7.74;100.00
12879;BME280;20617;49.476;10.986;2022-12-05T00:45:20;98030.84;;;7.74;100.00
12879;BME280;20617;49.476;10.986;2022-12-05T00:47:24;98036.94;;;7.72;100.00
12879;BME280;20617;49.476;10.986;2022-12-05T00:49:30;98041.28;;;7.72;100.00
12879;BME280;20617;49.476;10.986;2022-12-05T00:51:39;98041.28;;;7.72;100.00
12879;BME280;20617;49.476;10.986;2022-12-05T00:53:47;98042.09;;;7.74;100.00
12879;BME280;20617;49.476;10.986;2022-12-05T00:55:55;98042.97;;;7.73;100.00
12879;BME280;20617;49.476;10.986;2022-12-05T00:57:59;98043.06;;;7.70;100.00
12879;BME280;20617;49.476;10.986;2022-12-05T01:00:06;98044.78;;;7.71;100.00
12879;BME280;20617;49.476;10.986;2022-12-05T01:02:11;98047.38;;;7.71;100.00
12879;BME280;20617;49.476;10.986;2022-12-05T01:04:17;98044.81;;;7.69;100.00
12879;BME280;20617;49.476;10.986;2022-12-05T01:06:23;98051.75;;;7.69;100.00
12879;BME280;20617;49.476;10.986;2022-12-05T01:08:28;98056.94;;;7.69;100.00
12879;BME280;20617;49.476;10.986;2022-12-05T01:10:33;98063.69;;;7.73;100.00
12879;BME280;20617;49.476;10.986;2022-12-05T01:12:41;98066.19;;;7.76;100.00
12879;BME280;20617;49.476;10.986;2022-12-05T01:14:45;98073.91;;;7.78;100.00
12879;BME280;20617;49.476;10.986;2022-12-05T01:16:55;98067.06;;;7.77;100.00
12879;BME280;20617;49.476;10.986;2022-12-05T01:19:02;98069.69;;;7.75;100.00
12879;BME280;20617;49.476;10.986;2022-12-05T01:21:09;98062.81;;;7.74;100.00
12879;BME280;20617;49.476;10.986;2022-12-05T01:23:14;98062.00;;;7.72;100.00
12879;BME280;20617;49.476;10.986;2022-12-05T01:25:19;98060.25;;;7.72;100.00
12879;BME280;20617;49.476;10.986;2022-12-05T01:27:24;98065.53;;;7.69;100.00
12879;BME280;20617;49.476;10.986;2022-12-05T01:29:32;98074.97;;;7.72;100.00
12879;BME280;20617;49.476;10.986;2022-12-05T01:31:37;98075.06;;;7.69;100.00
12879;BME280;20617;49.476;10.986;2022-12-05T01:33:42;98080.25;;;7.69;100.00
12879;BME280;20617;49.476;10.986;2022-12-05T01:35:46;98079.31;;;7.71;100.00
12879;BME280;20617;49.476;10.986;2022-12-05T01:37:51;98077.56;;;7.72;100.00
12879;BME280;20617;49.476;10.986;2022-12-05T01:39:56;98081.94;;;7.70;100.00
12879;BME280;20617;49.476;10.986;2022-12-05T01:42:03;98081.06;;;7.71;100.00
12879;BME280;20617;49.476;10.986;2022-12-05T01:46:48;98092.38;;;7.68;100.00
12879;BME280;20617;49.476;10.986;2022-12-05T01:48:56;98094.88;;;7.70;100.00
12879;BME280;20617;49.476;10.986;2022-12-05T01:51:02;98100.06;;;7.70;100.00
12879;BME280;20617;49.476;10.986;2022-12-05T01:53:07;98110.41;;;7.71;100.00
12879;BME280;20617;49.476;10.986;2022-12-05T01:55:13;98112.09;;;7.72;100.00
12879;BME280;20617;49.476;10.986;2022-12-05T01:57:21;98118.94;;;7.74;100.00
12879;BME280;20617;49.476;10.986;2022-12-05T01:59:28;98115.50;;;7.73;100.00
12879;BME280;20617;49.476;10.986;2022-12-05T02:01:36;98113.09;;;7.68;100.00
12879;BME280;20617;49.476;10.986;2022-12-05T02:03:43;98121.91;;;7.63;100.00
12879;BME280;20617;49.476;10.986;2022-12-05T02:05:52;98120.47;;;7.54;100.00
12879;BME280;20617;49.476;10.986;2022-12-05T02:08:00;98120.41;;;7.56;100.00
12879;BME280;20617;49.476;10.986;2022-12-05T02:10:07;98127.41;;;7.52;100.00
12879;BME280;20617;49.476;10.986;2022-12-05T02:12:12;98121.53;;;7.47;100.00
12879;BME280;20617;49.476;10.986;2022-12-05T02:14:24;98121.53;;;7.47;100.00
12879;BME280;20617;49.476;10.986;2022-12-05T02:16:44;98125.25;;;7.38;100.00
12879;BME280;20617;49.476;10.986;2022-12-05T02:19:03;98126.88;;;7.42;100.00
12879;BME280;20617;49.476;10.986;2022-12-05T02:21:28;98128.56;;;7.43;100.00
12879;BME280;20617;49.476;10.986;2022-12-05T02:24:02;98126.03;;;7.42;100.00
12879;BME280;20617;49.476;10.986;2022-12-05T02:26:45;98142.41;;;7.42;100.00
12879;BME280;20617;49.476;10.986;2022-12-05T02:29:17;98145.44;;;7.29;100.00
12879;BME280;20617;49.476;10.986;2022-12-05T02:31:31;98151.50;;;7.28;100.00
12879;BME280;20617;49.476;10.986;2022-12-05T02:33:43;98150.63;;;7.27;100.00
12879;BME280;20617;49.476;10.986;2022-12-05T02:35:57;98153.06;;;7.33;100.00
12879;BME280;20617;49.476;10.986;2022-12-05T02:38:13;98158.28;;;7.32;100.00
12879;BME280;20617;49.476;10.986;2022-12-05T02:40:23;98160.03;;;7.31;100.00
12879;BME280;20617;49.476;10.986;2022-12-05T02:42:33;98158.41;;;7.27;100.00
12879;BME280;20617;49.476;10.986;2022-12-05T02:44:44;98165.28;;;7.28;100.00
12879;BME280;20617;49.476;10.986;2022-12-05T02:46:55;98163.75;;;7.22;100.00
12879;BME280;20617;49.476;10.986;2022-12-05T02:49:05;98165.50;;;7.20;100.00
12879;BME280;20617;49.476;10.986;2022-12-05T02:51:14;98172.31;;;7.24;100.00
12879;BME280;20617;49.476;10.986;2022-12-05T02:53:23;98163.69;;;7.24;100.00
12879;BME280;20617;49.476;10.986;2022-12-05T02:55:30;98166.44;;;7.18;100.00
12879;BME280;20617;49.476;10.986;2022-12-05T02:57:36;98173.75;;;7.05;100.00
12879;BME280;20617;49.476;10.986;2022-12-05T02:59:42;98185.69;;;7.09;100.00
12879;BME280;20617;49.476;10.986;2022-12-05T03:01:47;98175.50;;;7.05;100.00
12879;BME280;20617;49.476;10.986;2022-12-05T03:03:55;98182.34;;;7.06;100.00
12879;BME280;20617;49.476;10.986;2022-12-05T03:06:04;98187.44;;;7.09;100.00
12879;BME280;20617;49.476;10.986;2022-12-05T03:08:13;98185.78;;;7.06;100.00
12879;BME280;20617;49.476;10.986;2022-12-05T03:10:22;98191.94;;;7.02;100.00
12879;BME280;20617;49.476;10.986;2022-12-05T03:12:33;98193.06;;;6.93;100.00
12879;BME280;20617;49.476;10.986;2022-12-05T03:14:42;98196.75;;;6.85;100.00
12879;BME280;20617;49.476;10.986;2022-12-05T03:16:49;98201.28;;;6.76;100.00
12879;BME280;20617;49.476;10.986;2022-12-05T03:19:01;98193.31;;;6.84;100.00
12879;BME280;20617;49.476;10.986;2022-12-05T03:21:11;98193.41;;;6.81;100.00
12879;BME280;20617;49.476;10.986;2022-12-05T03:23:22;98197.81;;;6.77;100.00
12879;BME280;20617;49.476;10.986;2022-12-05T03:25:34;98189.81;;;6.87;100.00
12879;BME280;20617;49.476;10.986;2022-12-05T03:27:44;98195.69;;;6.92;100.00
12879;BME280;20617;49.476;10.986;2022-12-05T03:29:54;98180.22;;;6.90;100.00
12879;BME280;20617;49.476;10.986;2022-12-05T03:32:07;98173.66;;;6.78;100.00
12879;BME280;20617;49.476;10.986;2022-12-05T03:34:21;98158.91;;;6.80;100.00
12879;BME280;20617;49.476;10.986;2022-12-05T03:36:37;98155.53;;;6.78;100.00
12879;BME280;20617;49.476;10.986;2022-12-05T03:38:46;98146.38;;;6.67;100.00
12879;BME280;20617;49.476;10.986;2022-12-05T03:40:59;98160.59;;;6.52;100.00
12879;BME280;20617;49.476;10.986;2022-12-05T03:43:09;98170.53;;;6.34;100.00
12879;BME280;20617;49.476;10.986;2022-12-05T03:45:18;98190.41;;;6.32;100.00
12879;BME280;20617;49.476;10.986;2022-12-05T03:47:31;98201.41;;;6.41;100.00
12879;BME280;20617;49.476;10.986;2022-12-05T03:49:44;98194.41;;;6.44;100.00
12879;BME280;20617;49.476;10.986;2022-12-05T03:51:55;98196.91;;;6.47;100.00
12879;BME280;20617;49.476;10.986;2022-12-05T03:54:05;98195.06;;;6.52;100.00
12879;BME280;20617;49.476;10.986;2022-12-05T03:56:15;98199.38;;;6.52;100.00
12879;BME280;20617;49.476;10.986;2022-12-05T03:58:26;98204.31;;;6.61;100.00
12879;BME280;20617;49.476;10.986;2022-12-05T04:00:35;98206.72;;;6.67;100.00
12879;BME280;20617;49.476;10.986;2022-12-05T04:02:46;98221.34;;;6.68;100.00
12879;BME280;20617;49.476;10.986;2022-12-05T04:04:59;98216.00;;;6.74;100.00
12879;BME280;20617;49.476;10.986;2022-12-05T04:07:06;98212.56;;;6.74;100.00
12879;BME280;20617;49.476;10.986;2022-12-05T04:09:16;98210.88;;;6.73;100.00
12879;BME280;20617;49.476;10.986;2022-12-05T04:11:24;98229.00;;;6.73;100.00
12879;BME280;20617;49.476;10.986;2022-12-05T04:13:33;98232.25;;;6.79;100.00
12879;BME280;20617;49.476;10.986;2022-12-05T04:15:40;98230.50;;;6.80;100.00
12879;BME280;20617;49.476;10.986;2022-12-05T04:17:58;98223.66;;;6.79;100.00
12879;BME280;20617;49.476;10.986;2022-12-05T04:20:09;98227.41;;;6.67;100.00
12879;BME280;20617;49.476;10.986;2022-12-05T04:22:29;98232.84;;;6.58;100.00
12879;BME280;20617;49.476;10.986;2022-12-05T04:24:33;98238.88;;;6.57;100.00
12879;BME280;20617;49.476;10.986;2022-12-05T04:26:58;98243.38;;;6.50;100.00
12879;BME280;20617;49.476;10.986;2022-12-05T04:29:13;98239.94;;;6.50;100.00
12879;BME280;20617;49.476;10.986;2022-12-05T04:31:23;98244.38;;;6.45;100.00
12879;BME280;20617;49.476;10.986;2022-12-05T04:33:34;98245.31;;;6.42;100.00
12879;BME280;20617;49.476;10.986;2022-12-05T04:35:49;98239.59;;;6.29;100.00
12879;BME280;20617;49.476;10.986;2022-12-05T04:38:01;98248.34;;;6.24;100.00
12879;BME280;20617;49.476;10.986;2022-12-05T04:40:11;98252.78;;;6.19;100.00
12879;BME280;20617;49.476;10.986;2022-12-05T04:42:20;98250.94;;;6.24;100.00
12879;BME280;20617;49.476;10.986;2022-12-05T04:44:28;98253.53;;;6.24;100.00
12879;BME280;20617;49.476;10.986;2022-12-05T04:46:37;98253.28;;;6.34;100.00
12879;BME280;20617;49.476;10.986;2022-12-05T04:48:45;98248.94;;;6.35;100.00
12879;BME280;20617;49.476;10.986;2022-12-05T04:50:56;98246.31;;;6.37;100.00
12879;BME280;20617;49.476;10.986;2022-12-05T04:53:02;98245.53;;;6.33;100.00
12879;BME280;20617;49.476;10.986;2022-12-05T04:55:10;98244.00;;;6.26;100.00
12879;BME280;20617;49.476;10.986;2022-12-05T04:57:19;98245.69;;;6.27;100.00
12879;BME280;20617;49.476;10.986;2022-12-05T04:59:25;98255.22;;;6.25;100.00
12879;BME280;20617;49.476;10.986;2022-12-05T05:01:33;98252.03;;;6.15;100.00
12879;BME280;20617;49.476;10.986;2022-12-05T05:03:43;98253.94;;;6.07;100.00
12879;BME280;20617;49.476;10.986;2022-12-05T05:05:54;98253.25;;;6.00;100.00
12879;BME280;20617;49.476;10.986;2022-12-05T05:08:02;98261.00;;;5.99;100.00
12879;BME280;20617;49.476;10.986;2022-12-05T05:10:08;98252.41;;;6.00;100.00
12879;BME280;20617;49.476;10.986;2022-12-05T05:12:14;98266.84;;;6.07;100.00
12879;BME280;20617;49.476;10.986;2022-12-05T05:14:20;98258.19;;;6.09;100.00
12879;BME280;20617;49.476;10.986;2022-12-05T05:16:27;98262.44;;;6.12;100.00
12879;BME280;20617;49.476;10.986;2022-12-05T05:18:32;98264.84;;;6.20;100.00
12879;BME280;20617;49.476;10.986;2022-12-05T05:20:37;98263.88;;;6.24;100.00
12879;BME280;20617;49.476;10.986;2022-12-05T05:22:45;98279.53;;;6.18;100.00
12879;BME280;20617;49.476;10.986;2022-12-05T05:24:53;98270.88;;;6.19;100.00
12879;BME280;20617;49.476;10.986;2022-12-05T05:26:58;98270.06;;;6.17;100.00
12879;BME280;20617;49.476;10.986;2022-12-05T05:29:03;98275.28;;;6.15;100.00
12879;BME280;20617;49.476;10.986;2022-12-05T05:31:08;98273.16;;;5.95;100.00
12879;BME280;20617;49.476;10.986;2022-12-05T05:33:13;98273.91;;;6.00;100.00
12879;BME280;20617;49.476;10.986;2022-12-05T05:35:18;98278.25;;;6.00;100.00
12879;BME280;20617;49.476;10.986;2022-12-05T05:37:23;98278.94;;;6.06;100.00
12879;BME280;20617;49.476;10.986;2022-12-05T05:39:30;98280.69;;;6.04;100.00
12879;BME280;20617;49.476;10.986;2022-12-05T05:41:35;98278.84;;;6.11;100.00
12879;BME280;20617;49.476;10.986;2022-12-05T05:43:40;98285.00;;;6.05;100.00
12879;BME280;20617;49.476;10.986;2022-12-05T05:45:45;98286.84;;;6.00;100.00
12879;BME280;20617;49.476;10.986;2022-12-05T05:47:50;98280.19;;;5.88;100.00
12879;BME280;20617;49.476;10.986;2022-12-05T05:49:55;98284.28;;;5.99;100.00
12879;BME280;20617;49.476;10.986;2022-12-05T05:52:00;98281.66;;;6.00;100.00
12879;BME280;20617;49.476;10.986;2022-12-05T05:54:05;98283.47;;;5.97;100.00
12879;BME280;20617;49.476;10.986;2022-12-05T05:56:14;98285.16;;;5.99;100.00
12879;BME280;20617;49.476;10.986;2022-12-05T05:58:22;98287.66;;;6.02;100.00
12879;BME280;20617;49.476;10.986;2022-12-05T06:00:27;98285.16;;;5.99;100.00
12879;BME280;20617;49.476;10.986;2022-12-05T06:02:33;98291.94;;;6.03;100.00
12879;BME280;20617;49.476;10.986;2022-12-05T06:04:38;98294.44;;;6.06;100.00
12879;BME280;20617;49.476;10.986;2022-12-05T06:06:43;98298.63;;;6.12;100.00
12879;BME280;20617;49.476;10.986;2022-12-05T06:08:48;98292.41;;;6.19;100.00
12879;BME280;20617;49.476;10.986;2022-12-05T06:10:53;98294.13;;;6.20;100.00
12879;BME280;20617;49.476;10.986;2022-12-05T06:13:01;98286.44;;;6.17;100.00
12879;BME280;20617;49.476;10.986;2022-12-05T06:15:07;98286.59;;;6.09;100.00
12879;BME280;20617;49.476;10.986;2022-12-05T06:17:12;98290.94;;;6.09;100.00
12879;BME280;20617;49.476;10.986;2022-12-05T06:19:17;98299.75;;;6.00;100.00
12879;BME280;20617;49.476;10.986;2022-12-05T06:21:23;98298.06;;;5.99;100.00
12879;BME280;20617;49.476;10.986;2022-12-05T06:23:28;98304.19;;;5.92;100.00
12879;BME280;20617;49.476;10.986;2022-12-05T06:25:33;98319.72;;;5.92;100.00
12879;BME280;20617;49.476;10.986;2022-12-05T06:27:38;98312.16;;;5.83;100.00
12879;BME280;20617;49.476;10.986;2022-12-05T06:29:45;98312.22;;;5.80;100.00
12879;BME280;20617;49.476;10.986;2022-12-05T06:31:53;98316.78;;;5.68;100.00
12879;BME280;20617;49.476;10.986;2022-12-05T06:33:59;98317.63;;;5.69;100.00
12879;BME280;20617;49.476;10.986;2022-12-05T06:36:07;98316.94;;;5.61;100.00
12879;BME280;20617;49.476;10.986;2022-12-05T06:38:12;98323.06;;;5.55;100.00
12879;BME280;20617;49.476;10.986;2022-12-05T06:40:17;98324.69;;;5.61;100.00
12879;BME280;20617;49.476;10.986;2022-12-05T06:42:22;98327.31;;;5.59;100.00
12879;BME280;20617;49.476;10.986;2022-12-05T06:44:27;98325.50;;;5.63;100.00
12879;BME280;20617;49.476;10.986;2022-12-05T06:46:34;98329.81;;;5.62;100.00
12879;BME280;20617;49.476;10.986;2022-12-05T06:48:39;98338.19;;;5.74;100.00
12879;BME280;20617;49.476;10.986;2022-12-05T06:50:49;98327.75;;;5.80;100.00
12879;BME280;20617;49.476;10.986;2022-12-05T06:52:54;98332.00;;;5.81;100.00
12879;BME280;20617;49.476;10.986;2022-12-05T06:54:59;98337.25;;;5.78;100.00
12879;BME280;20617;49.476;10.986;2022-12-05T06:57:04;98339.03;;;5.74;100.00
12879;BME280;20617;49.476;10.986;2022-12-05T06:59:08;98351.81;;;5.82;100.00
12879;BME280;20617;49.476;10.986;2022-12-05T07:01:14;98345.75;;;5.81;100.00
12879;BME280;20617;49.476;10.986;2022-12-05T07:03:35;98342.28;;;5.84;100.00
12879;BME280;20617;49.476;10.986;2022-12-05T07:05:39;98341.50;;;5.80;100.00
12879;BME280;20617;49.476;10.986;2022-12-05T07:07:45;98335.63;;;5.72;100.00
12879;BME280;20617;49.476;10.986;2022-12-05T07:09:49;98337.44;;;5.68;100.00
12879;BME280;20617;49.476;10.986;2022-12-05T07:11:57;98345.13;;;5.72;100.00
12879;BME280;20617;49.476;10.986;2022-12-05T07:14:03;98340.97;;;5.64;100.00
12879;BME280;20617;49.476;10.986;2022-12-05T07:16:19;98342.94;;;5.53;100.00
12879;BME280;20617;49.476;10.986;2022-12-05T07:18:25;98343.78;;;5.54;100.00
12879;BME280;20617;49.476;10.986;2022-12-05T07:20:32;98347.13;;;5.57;100.00
12879;BME280;20617;49.476;10.986;2022-12-05T07:22:57;98353.16;;;5.58;100.00
12879;BME280;20617;49.476;10.986;2022-12-05T07:25:03;98347.84;;;5.65;100.00
12879;BME280;20617;49.476;10.986;2022-12-05T07:27:08;98352.94;;;5.67;100.00
12879;BME280;20617;49.476;10.986;2022-12-05T07:29:13;98360.63;;;5.70;100.00
12879;BME280;20617;49.476;10.986;2022-12-05T07:31:19;98353.63;;;5.77;100.00
12879;BME280;20617;49.476;10.986;2022-12-05T07:33:24;98354.47;;;5.77;100.00
12879;BME280;20617;49.476;10.986;2022-12-05T07:35:32;98361.38;;;5.77;100.00
12879;BME280;20617;49.476;10.986;2022-12-05T07:37:36;98363.06;;;5.78;100.00
12879;BME280;20617;49.476;10.986;2022-12-05T07:39:41;98367.31;;;5.82;100.00
12879;BME280;20617;49.476;10.986;2022-12-05T07:41:48;98367.25;;;5.85;100.00
12879;BME280;20617;49.476;10.986;2022-12-05T07:43:55;98375.72;;;5.90;100.00
12879;BME280;20617;49.476;10.986;2022-12-05T07:46:01;98376.69;;;5.86;100.00
12879;BME280;20617;49.476;10.986;2022-12-05T07:48:06;98377.59;;;5.83;100.00
12879;BME280;20617;49.476;10.986;2022-12-05T07:50:18;98375.06;;;5.80;100.00
12879;BME280;20617;49.476;10.986;2022-12-05T07:52:26;98380.19;;;5.83;100.00
12879;BME280;20617;49.476;10.986;2022-12-05T07:56:36;98387.03;;;5.84;100.00
12879;BME280;20617;49.476;10.986;2022-12-05T07:58:48;98388.78;;;5.84;100.00
12879;BME280;20617;49.476;10.986;2022-12-05T08:00:53;98397.34;;;5.86;100.00
12879;BME280;20617;49.476;10.986;2022-12-05T08:03:00;98394.69;;;5.90;100.00
12879;BME280;20617;49.476;10.986;2022-12-05T08:05:06;98392.97;;;5.89;100.00
12879;BME280;20617;49.476;10.986;2022-12-05T08:07:11;98381.75;;;5.90;100.00
12879;BME280;20617;49.476;10.986;2022-12-05T08:09:19;98375.69;;;5.93;100.00
12879;BME280;20617;49.476;10.986;2022-12-05T08:11:25;98379.03;;;5.98;100.00
12879;BME280;20617;49.476;10.986;2022-12-05T08:13:31;98370.50;;;5.95;100.00
12879;BME280;20617;49.476;10.986;2022-12-05T08:15:35;98378.28;;;5.93;100.00
12879;BME280;20617;49.476;10.986;2022-12-05T08:17:40;98381.69;;;5.95;100.00
12879;BME280;20617;49.476;10.986;2022-12-05T08:19:45;98380.78;;;5.98;100.00
12879;BME280;20617;49.476;10.986;2022-12-05T08:21:52;98383.28;;;6.01;100.00
12879;BME280;20617;49.476;10.986;2022-12-05T08:23:57;98393.56;;;6.04;100.00
12879;BME280;20617;49.476;10.986;2022-12-05T08:26:10;98398.63;;;6.08;100.00
12879;BME280;20617;49.476;10.986;2022-12-05T08:28:15;98391.09;;;5.99;100.00
12879;BME280;20617;49.476;10.986;2022-12-05T08:30:20;98398.66;;;6.07;100.00
12879;BME280;20617;49.476;10.986;2022-12-05T08:32:25;98400.31;;;6.09;100.00
12879;BME280;20617;49.476;10.986;2022-12-05T08:34:30;98401.16;;;6.10;100.00
12879;BME280;20617;49.476;10.986;2022-12-05T08:36:35;98399.50;;;6.07;100.00
12879;BME280;20617;49.476;10.986;2022-12-05T08:38:40;98408.13;;;6.08;100.00
12879;BME280;20617;49.476;10.986;2022-12-05T08:40:45;98411.50;;;6.11;100.00
12879;BME280;20617;49.476;10.986;2022-12-05T08:42:53;98413.25;;;6.09;100.00
12879;BME280;20617;49.476;10.986;2022-12-05T08:44:58;98418.41;;;6.09;100.00
12879;BME280;20617;49.476;10.986;2022-12-05T08:47:03;98418.41;;;6.11;100.00
12879;BME280;20617;49.476;10.986;2022-12-05T08:49:09;98423.50;;;6.12;100.00
12879;BME280;20617;49.476;10.986;2022-12-05T08:51:14;98421.75;;;6.15;100.00
12879;BME280;20617;49.476;10.986;2022-12-05T08:53:19;98425.94;;;6.20;100.00
12879;BME280;20617;49.476;10.986;2022-12-05T08:55:24;98422.47;;;6.21;100.00
12879;BME280;20617;49.476;10.986;2022-12-05T08:57:28;98424.19;;;6.21;100.00
12879;BME280;20617;49.476;10.986;2022-12-05T08:59:36;98430.06;;;6.29;100.00
12879;BME280;20617;49.476;10.986;2022-12-05T09:01:41;98436.09;;;6.29;100.00
12879;BME280;20617;49.476;10.986;2022-12-05T09:03:46;98438.81;;;6.23;100.00
12879;BME280;20617;49.476;10.986;2022-12-05T09:05:51;98441.31;;;6.26;100.00
12879;BME280;20617;49.476;10.986;2022-12-05T09:07:56;98448.88;;;6.34;100.00
12879;BME280;20617;49.476;10.986;2022-12-05T09:10:01;98456.75;;;6.29;100.00
12879;BME280;20617;49.476;10.986;2022-12-05T09:12:06;98460.13;;;6.33;100.00
12879;BME280;20617;49.476;10.986;2022-12-05T09:14:11;98463.47;;;6.37;100.00
12879;BME280;20617;49.476;10.986;2022-12-05T09:16:22;98458.25;;;6.40;100.00
12879;BME280;20617;49.476;10.986;2022-12-05T09:18:27;98465.09;;;6.42;100.00
12879;BME280;20617;49.476;10.986;2022-12-05T09:20:32;98472.13;;;6.37;100.00
12879;BME280;20617;49.476;10.986;2022-12-05T09:22:38;98466.06;;;6.38;100.00
12879;BME280;20617;49.476;10.986;2022-12-05T09:24:43;98466.84;;;6.42;100.00
12879;BME280;20617;49.476;10.986;2022-12-05T09:26:48;98464.28;;;6.40;100.00
12879;BME280;20617;49.476;10.986;2022-12-05T09:28:53;98469.47;;;6.40;100.00
12879;BME280;20617;49.476;10.986;2022-12-05T09:31:00;98468.44;;;6.47;100.00
12879;BME280;20617;49.476;10.986;2022-12-05T09:33:08;98470.09;;;6.50;100.00
12879;BME280;20617;49.476;10.986;2022-12-05T09:35:13;98465.09;;;6.42;100.00
12879;BME280;20617;49.476;10.986;2022-12-05T09:37:18;98471.97;;;6.43;100.00
12879;BME280;20617;49.476;10.986;2022-12-05T09:39:42;98473.59;;;6.47;100.00
12879;BME280;20617;49.476;10.986;2022-12-05T09:44:21;98470.84;;;6.55;100.00
12879;BME280;20617;49.476;10.986;2022-12-05T09:46:40;98479.31;;;6.62;100.00
12879;BME280;20617;49.476;10.986;2022-12-05T09:48:50;98477.56;;;6.64;100.00
12879;BME280;20617;49.476;10.986;2022-12-05T09:50:58;98478.28;;;6.69;100.00
12879;BME280;20617;49.476;10.986;2022-12-05T09:53:10;98473.09;;;6.70;100.00
12879;BME280;20617;49.476;10.986;2022-12-05T09:55:19;98475.69;;;6.70;100.00
12879;BME280;20617;49.476;10.986;2022-12-05T09:57:31;98473.00;;;6.75;100.00
12879;BME280;20617;49.476;10.986;2022-12-05T09:59:37;98472.94;;;6.76;100.00
12879;BME280;20617;49.476;10.986;2022-12-05T10:01:48;98462.56;;;6.78;100.00
12879;BME280;20617;49.476;10.986;2022-12-05T10:04:32;98468.53;;;6.80;100.00
12879;BME280;20617;49.476;10.986;2022-12-05T10:06:53;98471.19;;;6.77;100.00
12879;BME280;20617;49.476;10.986;2022-12-05T10:09:19;98459.19;;;6.74;100.00
12879;BME280;20617;49.476;10.986;2022-12-05T10:11:34;98464.47;;;6.70;100.00
12879;BME280;20617;49.476;10.986;2022-12-05T10:13:47;98466.16;;;6.72;100.00
12879;BME280;20617;49.476;10.986;2022-12-05T10:16:00;98469.59;;;6.73;100.00
12879;BME280;20617;49.476;10.986;2022-12-05T10:18:26;98473.84;;;6.75;100.00
12879;BME280;20617;49.476;10.986;2022-12-05T10:20:39;98465.16;;;6.78;100.00
12879;BME280;20617;49.476;10.986;2022-12-05T10:22:48;98463.38;;;6.80;100.00
12879;BME280;20617;49.476;10.986;2022-12-05T10:24:59;98459.84;;;6.84;100.00
12879;BME280;20617;49.476;10.986;2022-12-05T10:27:07;98462.50;;;6.81;100.00
12879;BME280;20617;49.476;10.986;2022-12-05T10:29:20;98464.19;;;6.82;100.00
12879;BME280;20617;49.476;10.986;2022-12-05T10:31:29;98461.59;;;6.84;100.00
12879;BME280;20617;49.476;10.986;2022-12-05T10:33:38;98463.13;;;6.89;100.00
12879;BME280;20617;49.476;10.986;2022-12-05T10:35:49;98457.94;;;6.91;100.00
12879;BME280;20617;49.476;10.986;2022-12-05T10:37:57;98466.56;;;6.91;100.00
12879;BME280;20617;49.476;10.986;2022-12-05T10:40:03;98467.44;;;6.90;100.00
12879;BME280;20617;49.476;10.986;2022-12-05T10:42:11;98467.31;;;6.95;100.00
12879;BME280;20617;49.476;10.986;2022-12-05T10:44:17;98465.53;;;6.98;100.00
12879;BME280;20617;49.476;10.986;2022-12-05T10:46:22;98469.66;;;7.06;100.00
12879;BME280;20617;49.476;10.986;2022-12-05T10:48:28;98464.66;;;6.98;100.00
12879;BME280;20617;49.476;10.986;2022-12-05T10:50:36;98473.22;;;7.01;100.00
12879;BME280;20617;49.476;10.986;2022-12-05T10:52:46;98467.16;;;7.02;100.00
12879;BME280;20617;49.476;10.986;2022-12-05T10:54:55;98461.94;;;7.04;100.00
12879;BME280;20617;49.476;10.986;2022-12-05T10:57:19;98457.63;;;7.03;100.00
12879;BME280;20617;49.476;10.986;2022-12-05T10:59:36;98456.78;;;7.04;100.00
12879;BME280;20617;49.476;10.986;2022-12-05T11:01:49;98461.94;;;7.04;100.00
12879;BME280;20617;49.476;10.986;2022-12-05T11:03:57;98462.72;;;7.08;100.00
12879;BME280;20617;49.476;10.986;2022-12-05T11:06:14;98468.75;;;7.07;100.00
12879;BME280;20617;49.476;10.986;2022-12-05T11:08:25;98468.97;;;6.99;100.00
12879;BME280;20617;49.476;10.986;2022-12-05T11:11:00;98487.22;;;6.93;100.00
12879;BME280;20617;49.476;10.986;2022-12-05T11:13:14;98492.28;;;6.97;100.00
12879;BME280;20617;49.476;10.986;2022-12-05T11:15:21;98479.25;;;7.00;100.00
12879;BME280;20617;49.476;10.986;2022-12-05T11:17:30;98475.69;;;7.06;100.00
12879;BME280;20617;49.476;10.986;2022-12-05T11:19:37;98474.66;;;7.13;100.00